sensor_id;sensor_type;location;lat;lon;timestamp;P1;durP1;ratioP1;P2;durP2;ratioP2
8466;SDS011;4270;48.148;11.648;2022-09-09T00:06:50;3.00;;;1.90;;
8466;SDS011;4270;48.148;11.648;2022-09-09T00:09:19;2.70;;;1.63;;
8466;SDS011;4270;48.148;11.648;2022-09-09T00:11:48;2.40;;;1.80;;
8466;SDS011;4270;48.148;11.648;2022-09-09T00:14:23;3.80;;;1.53;;
8466;SDS011;4270;48.148;11.648;2022-09-09T00:16:55;5.97;;;1.73;;
8466;SDS011;4270;48.148;11.648;2022-09-09T00:21:48;3.50;;;2.47;;
8466;SDS011;4270;48.148;11.648;2022-09-09T00:24:23;6.93;;;1.80;;
8466;SDS011;4270;48.148;11.648;2022-09-09T00:26:51;2.43;;;1.80;;
8466;SDS011;4270;48.148;11.648;2022-09-09T00:31:43;3.50;;;2.10;;
8466;SDS011;4270;48.148;11.648;2022-09-09T00:34:12;3.53;;;2.17;;
8466;SDS011;4270;48.148;11.648;2022-09-09T00:36:38;3.53;;;1.93;;
8466;SDS011;4270;48.148;11.648;2022-09-09T00:39:04;3.93;;;2.07;;
8466;SDS011;4270;48.148;11.648;2022-09-09T00:57:31;8.00;;;1.93;;
8466;SDS011;4270;48.148;11.648;2022-09-09T00:59:58;6.43;;;2.40;;
8466;SDS011;4270;48.148;11.648;2022-09-09T01:04:53;2.70;;;1.70;;
8466;SDS011;4270;48.148;11.648;2022-09-09T01:07:19;1.90;;;1.67;;
8466;SDS011;4270;48.148;11.648;2022-09-09T01:09:52;1.87;;;1.40;;
8466;SDS011;4270;48.148;11.648;2022-09-09T01:12:23;2.77;;;1.80;;
8466;SDS011;4270;48.148;11.648;2022-09-09T01:14:50;2.37;;;2.07;;
8466;SDS011;4270;48.148;11.648;2022-09-09T01:23:13;2.30;;;1.80;;
8466;SDS011;4270;48.148;11.648;2022-09-09T01:28:03;1.70;;;1.60;;
8466;SDS011;4270;48.148;11.648;2022-09-09T01:30:32;3.30;;;1.60;;
8466;SDS011;4270;48.148;11.648;2022-09-09T01:32:58;2.67;;;1.70;;
8466;SDS011;4270;48.148;11.648;2022-09-09T01:37:54;1.97;;;1.70;;
8466;SDS011;4270;48.148;11.648;2022-09-09T01:40:19;1.80;;;1.53;;
8466;SDS011;4270;48.148;11.648;2022-09-09T01:42:44;2.37;;;1.90;;
8466;SDS011;4270;48.148;11.648;2022-09-09T01:45:09;3.20;;;1.77;;
8466;SDS011;4270;48.148;11.648;2022-09-09T01:47:35;5.97;;;2.43;;
8466;SDS011;4270;48.148;11.648;2022-09-09T01:50:00;1.93;;;1.67;;
8466;SDS011;4270;48.148;11.648;2022-09-09T01:52:26;2.83;;;1.93;;
8466;SDS011;4270;48.148;11.648;2022-09-09T01:54:51;2.43;;;1.80;;
8466;SDS011;4270;48.148;11.648;2022-09-09T01:57:21;2.93;;;1.77;;
8466;SDS011;4270;48.148;11.648;2022-09-09T02:05:01;2.33;;;2.10;;
8466;SDS011;4270;48.148;11.648;2022-09-09T02:07:40;2.83;;;1.93;;
8466;SDS011;4270;48.148;11.648;2022-09-09T02:10:10;2.80;;;1.53;;
8466;SDS011;4270;48.148;11.648;2022-09-09T02:12:38;5.37;;;2.10;;
8466;SDS011;4270;48.148;11.648;2022-09-09T02:15:07;2.40;;;2.10;;
8466;SDS011;4270;48.148;11.648;2022-09-09T02:17:36;2.90;;;1.97;;
8466;SDS011;4270;48.148;11.648;2022-09-09T02:20:03;2.20;;;2.00;;
8466;SDS011;4270;48.148;11.648;2022-09-09T02:22:30;1.77;;;1.67;;
8466;SDS011;4270;48.148;11.648;2022-09-09T02:24:56;3.20;;;2.00;;
8466;SDS011;4270;48.148;11.648;2022-09-09T02:27:24;3.80;;;1.97;;
8466;SDS011;4270;48.148;11.648;2022-09-09T02:29:49;4.70;;;1.80;;
8466;SDS011;4270;48.148;11.648;2022-09-09T02:32:17;1.83;;;1.67;;
8466;SDS011;4270;48.148;11.648;2022-09-09T02:34:48;4.00;;;2.00;;
8466;SDS011;4270;48.148;11.648;2022-09-09T02:37:15;6.20;;;1.87;;
8466;SDS011;4270;48.148;11.648;2022-09-09T02:39:41;3.30;;;1.77;;
8466;SDS011;4270;48.148;11.648;2022-09-09T02:42:07;2.23;;;1.87;;
8466;SDS011;4270;48.148;11.648;2022-09-09T02:44:33;3.53;;;1.93;;
8466;SDS011;4270;48.148;11.648;2022-09-09T02:52:14;2.63;;;1.70;;
8466;SDS011;4270;48.148;11.648;2022-09-09T02:54:43;1.93;;;1.70;;
8466;SDS011;4270;48.148;11.648;2022-09-09T02:59:37;2.33;;;1.90;;
8466;SDS011;4270;48.148;11.648;2022-09-09T03:02:03;2.30;;;1.60;;
8466;SDS011;4270;48.148;11.648;2022-09-09T03:04:28;2.83;;;1.90;;
8466;SDS011;4270;48.148;11.648;2022-09-09T03:06:54;1.60;;;1.50;;
8466;SDS011;4270;48.148;11.648;2022-09-09T03:09:20;1.83;;;1.60;;
8466;SDS011;4270;48.148;11.648;2022-09-09T03:11:45;3.63;;;1.70;;
8466;SDS011;4270;48.148;11.648;2022-09-09T03:14:10;1.60;;;1.50;;
8466;SDS011;4270;48.148;11.648;2022-09-09T03:16:36;2.33;;;1.40;;
8466;SDS011;4270;48.148;11.648;2022-09-09T03:19:01;1.50;;;1.40;;
8466;SDS011;4270;48.148;11.648;2022-09-09T03:21:26;1.60;;;1.50;;
8466;SDS011;4270;48.148;11.648;2022-09-09T03:23:52;2.57;;;1.27;;
8466;SDS011;4270;48.148;11.648;2022-09-09T03:26:17;1.90;;;1.47;;
8466;SDS011;4270;48.148;11.648;2022-09-09T03:28:42;1.73;;;1.63;;
8466;SDS011;4270;48.148;11.648;2022-09-09T03:31:10;2.97;;;1.53;;
8466;SDS011;4270;48.148;11.648;2022-09-09T03:33:36;1.93;;;1.80;;
8466;SDS011;4270;48.148;11.648;2022-09-09T03:36:01;1.73;;;1.30;;
8466;SDS011;4270;48.148;11.648;2022-09-09T03:38:27;2.33;;;1.77;;
8466;SDS011;4270;48.148;11.648;2022-09-09T03:40:53;5.20;;;2.00;;
8466;SDS011;4270;48.148;11.648;2022-09-09T03:43:27;1.37;;;1.27;;
8466;SDS011;4270;48.148;11.648;2022-09-09T03:45:52;3.80;;;2.03;;
8466;SDS011;4270;48.148;11.648;2022-09-09T03:48:18;1.50;;;1.40;;
8466;SDS011;4270;48.148;11.648;2022-09-09T03:50:47;2.10;;;1.30;;
8466;SDS011;4270;48.148;11.648;2022-09-09T03:53:13;1.87;;;1.60;;
8466;SDS011;4270;48.148;11.648;2022-09-09T03:55:38;2.87;;;1.63;;
8466;SDS011;4270;48.148;11.648;2022-09-09T03:58:06;1.63;;;1.50;;
8466;SDS011;4270;48.148;11.648;2022-09-09T04:00:32;3.43;;;1.43;;
8466;SDS011;4270;48.148;11.648;2022-09-09T04:02:57;1.50;;;1.40;;
8466;SDS011;4270;48.148;11.648;2022-09-09T04:05:22;2.00;;;1.57;;
8466;SDS011;4270;48.148;11.648;2022-09-09T04:07:48;2.57;;;1.63;;
8466;SDS011;4270;48.148;11.648;2022-09-09T04:10:13;2.13;;;1.50;;
8466;SDS011;4270;48.148;11.648;2022-09-09T04:12:38;1.63;;;1.53;;
8466;SDS011;4270;48.148;11.648;2022-09-09T04:15:04;2.03;;;1.37;;
8466;SDS011;4270;48.148;11.648;2022-09-09T04:17:29;2.90;;;1.37;;
8466;SDS011;4270;48.148;11.648;2022-09-09T04:19:55;1.57;;;1.47;;
8466;SDS011;4270;48.148;11.648;2022-09-09T04:22:20;1.00;;;1.00;;
8466;SDS011;4270;48.148;11.648;2022-09-09T04:24:47;1.30;;;1.20;;
8466;SDS011;4270;48.148;11.648;2022-09-09T04:27:12;1.60;;;1.50;;
8466;SDS011;4270;48.148;11.648;2022-09-09T04:29:37;3.13;;;1.60;;
8466;SDS011;4270;48.148;11.648;2022-09-09T04:32:03;1.23;;;1.13;;
8466;SDS011;4270;48.148;11.648;2022-09-09T04:34:29;2.07;;;1.80;;
8466;SDS011;4270;48.148;11.648;2022-09-09T04:36:55;1.90;;;1.70;;
8466;SDS011;4270;48.148;11.648;2022-09-09T04:39:21;2.20;;;1.47;;
8466;SDS011;4270;48.148;11.648;2022-09-09T04:41:46;4.17;;;1.60;;
8466;SDS011;4270;48.148;11.648;2022-09-09T04:44:12;1.80;;;1.27;;
8466;SDS011;4270;48.148;11.648;2022-09-09T04:46:37;2.47;;;1.70;;
8466;SDS011;4270;48.148;11.648;2022-09-09T04:49:02;1.43;;;1.20;;
8466;SDS011;4270;48.148;11.648;2022-09-09T04:51:28;1.50;;;1.40;;
8466;SDS011;4270;48.148;11.648;2022-09-09T04:53:53;3.10;;;1.77;;
8466;SDS011;4270;48.148;11.648;2022-09-09T04:56:19;3.47;;;1.60;;
8466;SDS011;4270;48.148;11.648;2022-09-09T04:58:44;3.73;;;1.50;;
8466;SDS011;4270;48.148;11.648;2022-09-09T05:03:39;3.00;;;1.60;;
8466;SDS011;4270;48.148;11.648;2022-09-09T05:06:04;1.60;;;1.50;;
8466;SDS011;4270;48.148;11.648;2022-09-09T05:08:30;1.67;;;1.57;;
8466;SDS011;4270;48.148;11.648;2022-09-09T05:10:56;2.67;;;1.53;;
8466;SDS011;4270;48.148;11.648;2022-09-09T05:13:21;5.10;;;1.73;;
8466;SDS011;4270;48.148;11.648;2022-09-09T05:15:51;2.30;;;1.50;;
8466;SDS011;4270;48.148;11.648;2022-09-09T05:18:16;3.73;;;1.53;;
8466;SDS011;4270;48.148;11.648;2022-09-09T05:20:42;6.20;;;1.60;;
8466;SDS011;4270;48.148;11.648;2022-09-09T05:23:07;6.00;;;1.63;;
8466;SDS011;4270;48.148;11.648;2022-09-09T05:25:33;1.70;;;1.50;;
8466;SDS011;4270;48.148;11.648;2022-09-09T05:27:58;3.90;;;1.60;;
8466;SDS011;4270;48.148;11.648;2022-09-09T05:30:24;2.27;;;1.87;;
8466;SDS011;4270;48.148;11.648;2022-09-09T05:32:51;1.93;;;1.70;;
8466;SDS011;4270;48.148;11.648;2022-09-09T05:35:16;1.73;;;1.63;;
8466;SDS011;4270;48.148;11.648;2022-09-09T05:37:44;2.57;;;1.70;;
8466;SDS011;4270;48.148;11.648;2022-09-09T05:40:10;9.27;;;2.17;;
8466;SDS011;4270;48.148;11.648;2022-09-09T05:42:36;3.37;;;1.83;;
8466;SDS011;4270;48.148;11.648;2022-09-09T05:45:01;1.63;;;1.53;;
8466;SDS011;4270;48.148;11.648;2022-09-09T05:47:26;2.00;;;1.50;;
8466;SDS011;4270;48.148;11.648;2022-09-09T05:49:52;2.60;;;1.60;;
8466;SDS011;4270;48.148;11.648;2022-09-09T05:52:18;2.10;;;1.50;;
8466;SDS011;4270;48.148;11.648;2022-09-09T05:54:43;3.23;;;1.87;;
8466;SDS011;4270;48.148;11.648;2022-09-09T05:57:08;3.10;;;1.87;;
8466;SDS011;4270;48.148;11.648;2022-09-09T05:59:34;1.50;;;1.40;;
8466;SDS011;4270;48.148;11.648;2022-09-09T06:01:59;2.33;;;1.30;;
8466;SDS011;4270;48.148;11.648;2022-09-09T06:04:24;2.23;;;1.60;;
8466;SDS011;4270;48.148;11.648;2022-09-09T06:06:50;3.60;;;1.80;;
8466;SDS011;4270;48.148;11.648;2022-09-09T06:09:15;3.10;;;2.00;;
8466;SDS011;4270;48.148;11.648;2022-09-09T06:11:41;3.33;;;1.70;;
8466;SDS011;4270;48.148;11.648;2022-09-09T06:14:06;3.43;;;1.47;;
8466;SDS011;4270;48.148;11.648;2022-09-09T06:16:32;2.27;;;1.67;;
8466;SDS011;4270;48.148;11.648;2022-09-09T06:18:58;1.50;;;1.33;;
8466;SDS011;4270;48.148;11.648;2022-09-09T06:21:27;2.73;;;1.40;;
8466;SDS011;4270;48.148;11.648;2022-09-09T06:23:53;2.53;;;1.50;;
8466;SDS011;4270;48.148;11.648;2022-09-09T06:26:19;2.33;;;1.40;;
8466;SDS011;4270;48.148;11.648;2022-09-09T06:28:46;1.67;;;1.37;;
8466;SDS011;4270;48.148;11.648;2022-09-09T06:31:13;2.70;;;1.30;;
8466;SDS011;4270;48.148;11.648;2022-09-09T06:33:41;2.90;;;1.30;;
8466;SDS011;4270;48.148;11.648;2022-09-09T06:36:07;1.40;;;1.07;;
8466;SDS011;4270;48.148;11.648;2022-09-09T06:38:34;1.67;;;1.40;;
8466;SDS011;4270;48.148;11.648;2022-09-09T06:41:00;2.27;;;1.40;;
8466;SDS011;4270;48.148;11.648;2022-09-09T06:43:26;1.37;;;1.10;;
8466;SDS011;4270;48.148;11.648;2022-09-09T06:45:55;2.10;;;1.47;;
8466;SDS011;4270;48.148;11.648;2022-09-09T06:48:21;3.20;;;1.07;;
8466;SDS011;4270;48.148;11.648;2022-09-09T06:50:46;2.83;;;1.17;;
8466;SDS011;4270;48.148;11.648;2022-09-09T06:53:12;3.87;;;1.50;;
8466;SDS011;4270;48.148;11.648;2022-09-09T06:55:37;2.10;;;1.30;;
8466;SDS011;4270;48.148;11.648;2022-09-09T06:58:02;3.23;;;1.30;;
8466;SDS011;4270;48.148;11.648;2022-09-09T07:00:32;1.80;;;1.23;;
8466;SDS011;4270;48.148;11.648;2022-09-09T07:02:57;1.37;;;1.00;;
8466;SDS011;4270;48.148;11.648;2022-09-09T07:05:23;1.80;;;1.10;;
8466;SDS011;4270;48.148;11.648;2022-09-09T07:07:48;2.70;;;1.33;;
8466;SDS011;4270;48.148;11.648;2022-09-09T07:10:13;4.23;;;1.40;;
8466;SDS011;4270;48.148;11.648;2022-09-09T07:12:39;1.27;;;0.97;;
8466;SDS011;4270;48.148;11.648;2022-09-09T07:15:04;1.33;;;1.10;;
8466;SDS011;4270;48.148;11.648;2022-09-09T07:17:30;4.30;;;1.07;;
8466;SDS011;4270;48.148;11.648;2022-09-09T07:19:55;2.17;;;0.80;;
8466;SDS011;4270;48.148;11.648;2022-09-09T07:22:21;2.10;;;1.20;;
8466;SDS011;4270;48.148;11.648;2022-09-09T07:24:47;1.50;;;1.00;;
8466;SDS011;4270;48.148;11.648;2022-09-09T07:27:14;2.30;;;1.10;;
8466;SDS011;4270;48.148;11.648;2022-09-09T07:29:39;1.10;;;0.90;;
8466;SDS011;4270;48.148;11.648;2022-09-09T07:32:05;1.90;;;1.20;;
8466;SDS011;4270;48.148;11.648;2022-09-09T07:34:30;2.30;;;1.23;;
8466;SDS011;4270;48.148;11.648;2022-09-09T07:36:55;2.40;;;1.20;;
8466;SDS011;4270;48.148;11.648;2022-09-09T07:39:22;2.23;;;1.23;;
8466;SDS011;4270;48.148;11.648;2022-09-09T07:41:48;1.83;;;1.33;;
8466;SDS011;4270;48.148;11.648;2022-09-09T07:44:15;4.33;;;1.40;;
8466;SDS011;4270;48.148;11.648;2022-09-09T07:46:41;1.70;;;1.33;;
8466;SDS011;4270;48.148;11.648;2022-09-09T07:49:07;1.80;;;1.43;;
8466;SDS011;4270;48.148;11.648;2022-09-09T07:51:33;4.63;;;1.40;;
8466;SDS011;4270;48.148;11.648;2022-09-09T07:54:03;2.20;;;1.03;;
8466;SDS011;4270;48.148;11.648;2022-09-09T07:56:29;3.60;;;1.77;;
8466;SDS011;4270;48.148;11.648;2022-09-09T07:58:55;1.40;;;1.30;;
8466;SDS011;4270;48.148;11.648;2022-09-09T08:03:53;2.60;;;1.20;;
8466;SDS011;4270;48.148;11.648;2022-09-09T08:06:19;2.23;;;1.40;;
8466;SDS011;4270;48.148;11.648;2022-09-09T08:08:44;1.30;;;1.20;;
8466;SDS011;4270;48.148;11.648;2022-09-09T08:11:13;2.37;;;1.60;;
8466;SDS011;4270;48.148;11.648;2022-09-09T08:13:39;2.37;;;1.30;;
8466;SDS011;4270;48.148;11.648;2022-09-09T08:16:09;3.00;;;1.37;;
8466;SDS011;4270;48.148;11.648;2022-09-09T08:18:35;1.53;;;1.20;;
8466;SDS011;4270;48.148;11.648;2022-09-09T08:21:16;2.30;;;1.30;;
8466;SDS011;4270;48.148;11.648;2022-09-09T08:23:43;1.73;;;1.17;;
8466;SDS011;4270;48.148;11.648;2022-09-09T08:26:10;3.50;;;1.30;;
8466;SDS011;4270;48.148;11.648;2022-09-09T08:28:36;2.20;;;1.13;;
8466;SDS011;4270;48.148;11.648;2022-09-09T08:31:06;2.33;;;1.33;;
8466;SDS011;4270;48.148;11.648;2022-09-09T08:33:31;2.10;;;1.07;;
8466;SDS011;4270;48.148;11.648;2022-09-09T08:35:57;3.80;;;1.27;;
8466;SDS011;4270;48.148;11.648;2022-09-09T08:38:23;2.03;;;1.10;;
8466;SDS011;4270;48.148;11.648;2022-09-09T08:40:49;3.40;;;1.30;;
8466;SDS011;4270;48.148;11.648;2022-09-09T08:43:16;2.40;;;1.20;;
8466;SDS011;4270;48.148;11.648;2022-09-09T08:45:49;2.67;;;1.17;;
8466;SDS011;4270;48.148;11.648;2022-09-09T08:50:40;2.90;;;1.30;;
8466;SDS011;4270;48.148;11.648;2022-09-09T08:55:45;4.43;;;1.53;;
8466;SDS011;4270;48.148;11.648;2022-09-09T08:58:17;2.80;;;1.10;;
8466;SDS011;4270;48.148;11.648;2022-09-09T09:03:35;4.03;;;2.17;;
8466;SDS011;4270;48.148;11.648;2022-09-09T09:11:35;2.27;;;2.07;;
8466;SDS011;4270;48.148;11.648;2022-09-09T09:14:02;2.90;;;2.20;;
8466;SDS011;4270;48.148;11.648;2022-09-09T09:18:57;1.60;;;1.47;;
8466;SDS011;4270;48.148;11.648;2022-09-09T09:21:45;7.80;;;3.00;;
8466;SDS011;4270;48.148;11.648;2022-09-09T09:24:29;3.10;;;2.37;;
8466;SDS011;4270;48.148;11.648;2022-09-09T09:26:57;2.53;;;1.63;;
8466;SDS011;4270;48.148;11.648;2022-09-09T09:29:24;2.63;;;1.40;;
8466;SDS011;4270;48.148;11.648;2022-09-09T09:31:53;5.03;;;1.83;;
8466;SDS011;4270;48.148;11.648;2022-09-09T09:34:20;2.00;;;1.80;;
8466;SDS011;4270;48.148;11.648;2022-09-09T09:36:58;2.57;;;1.60;;
8466;SDS011;4270;48.148;11.648;2022-09-09T09:39:35;2.23;;;1.50;;
8466;SDS011;4270;48.148;11.648;2022-09-09T09:42:10;4.67;;;1.90;;
8466;SDS011;4270;48.148;11.648;2022-09-09T09:44:39;3.90;;;1.53;;
8466;SDS011;4270;48.148;11.648;2022-09-09T09:47:22;3.90;;;1.50;;
8466;SDS011;4270;48.148;11.648;2022-09-09T09:49:58;3.73;;;1.20;;
8466;SDS011;4270;48.148;11.648;2022-09-09T09:52:25;2.60;;;1.47;;
8466;SDS011;4270;48.148;11.648;2022-09-09T09:54:51;3.00;;;1.77;;
8466;SDS011;4270;48.148;11.648;2022-09-09T09:57:17;3.10;;;1.73;;
8466;SDS011;4270;48.148;11.648;2022-09-09T09:59:43;1.60;;;1.50;;
8466;SDS011;4270;48.148;11.648;2022-09-09T10:02:24;2.40;;;1.30;;
8466;SDS011;4270;48.148;11.648;2022-09-09T10:05:05;5.07;;;1.50;;
8466;SDS011;4270;48.148;11.648;2022-09-09T10:07:30;3.03;;;1.30;;
8466;SDS011;4270;48.148;11.648;2022-09-09T10:09:58;1.70;;;1.27;;
8466;SDS011;4270;48.148;11.648;2022-09-09T10:17:59;2.40;;;1.33;;
8466;SDS011;4270;48.148;11.648;2022-09-09T10:23:09;2.70;;;1.60;;
8466;SDS011;4270;48.148;11.648;2022-09-09T10:26:00;2.00;;;1.50;;
8466;SDS011;4270;48.148;11.648;2022-09-09T10:28:33;3.03;;;1.57;;
8466;SDS011;4270;48.148;11.648;2022-09-09T10:31:17;2.60;;;1.30;;
8466;SDS011;4270;48.148;11.648;2022-09-09T10:36:23;3.17;;;1.10;;
8466;SDS011;4270;48.148;11.648;2022-09-09T10:38:54;3.37;;;1.00;;
8466;SDS011;4270;48.148;11.648;2022-09-09T10:46:29;1.93;;;1.40;;
8466;SDS011;4270;48.148;11.648;2022-09-09T10:56:42;1.40;;;1.00;;
8466;SDS011;4270;48.148;11.648;2022-09-09T10:59:12;0.97;;;0.80;;
8466;SDS011;4270;48.148;11.648;2022-09-09T11:06:57;1.60;;;1.30;;
8466;SDS011;4270;48.148;11.648;2022-09-09T11:09:26;1.40;;;1.30;;
8466;SDS011;4270;48.148;11.648;2022-09-09T11:11:53;3.93;;;1.10;;
8466;SDS011;4270;48.148;11.648;2022-09-09T11:14:21;2.40;;;1.10;;
8466;SDS011;4270;48.148;11.648;2022-09-09T11:16:50;1.00;;;0.90;;
8466;SDS011;4270;48.148;11.648;2022-09-09T11:21:42;1.20;;;0.80;;
8466;SDS011;4270;48.148;11.648;2022-09-09T11:24:12;1.67;;;0.90;;
8466;SDS011;4270;48.148;11.648;2022-09-09T11:26:41;3.27;;;1.03;;
8466;SDS011;4270;48.148;11.648;2022-09-09T11:34:19;1.03;;;0.80;;
8466;SDS011;4270;48.148;11.648;2022-09-09T11:41:39;1.00;;;0.80;;
8466;SDS011;4270;48.148;11.648;2022-09-09T11:44:12;1.83;;;0.97;;
8466;SDS011;4270;48.148;11.648;2022-09-09T11:46:38;1.63;;;1.20;;
8466;SDS011;4270;48.148;11.648;2022-09-09T11:49:06;0.90;;;0.80;;
8466;SDS011;4270;48.148;11.648;2022-09-09T11:51:32;1.13;;;1.03;;
8466;SDS011;4270;48.148;11.648;2022-09-09T11:53:59;1.43;;;0.80;;
8466;SDS011;4270;48.148;11.648;2022-09-09T11:56:27;2.30;;;0.83;;
8466;SDS011;4270;48.148;11.648;2022-09-09T11:58:54;1.27;;;0.80;;
8466;SDS011;4270;48.148;11.648;2022-09-09T12:01:27;1.47;;;0.73;;
8466;SDS011;4270;48.148;11.648;2022-09-09T12:09:43;1.10;;;0.90;;
8466;SDS011;4270;48.148;11.648;2022-09-09T12:19:41;0.90;;;0.70;;
8466;SDS011;4270;48.148;11.648;2022-09-09T12:24:41;1.30;;;0.80;;
8466;SDS011;4270;48.148;11.648;2022-09-09T12:27:26;1.53;;;0.80;;
8466;SDS011;4270;48.148;11.648;2022-09-09T12:30:01;1.20;;;1.10;;
8466;SDS011;4270;48.148;11.648;2022-09-09T12:32:27;1.17;;;0.87;;
8466;SDS011;4270;48.148;11.648;2022-09-09T12:35:02;2.53;;;0.70;;
8466;SDS011;4270;48.148;11.648;2022-09-09T12:37:33;3.47;;;1.40;;
8466;SDS011;4270;48.148;11.648;2022-09-09T12:40:01;1.10;;;0.97;;
8466;SDS011;4270;48.148;11.648;2022-09-09T12:42:27;1.07;;;0.60;;
8466;SDS011;4270;48.148;11.648;2022-09-09T12:45:35;4.03;;;0.83;;
8466;SDS011;4270;48.148;11.648;2022-09-09T12:47:52;2.43;;;0.60;;
8466;SDS011;4270;48.148;11.648;2022-09-09T12:50:20;0.80;;;0.80;;
8466;SDS011;4270;48.148;11.648;2022-09-09T12:52:46;2.20;;;1.07;;
8466;SDS011;4270;48.148;11.648;2022-09-09T12:55:16;2.10;;;0.90;;
8466;SDS011;4270;48.148;11.648;2022-09-09T12:57:42;1.70;;;0.57;;
8466;SDS011;4270;48.148;11.648;2022-09-09T13:00:13;3.33;;;0.70;;
8466;SDS011;4270;48.148;11.648;2022-09-09T13:02:55;2.00;;;1.50;;
8466;SDS011;4270;48.148;11.648;2022-09-09T13:07:49;1.27;;;0.70;;
8466;SDS011;4270;48.148;11.648;2022-09-09T13:10:16;1.67;;;0.90;;
8466;SDS011;4270;48.148;11.648;2022-09-09T13:12:44;3.07;;;1.03;;
8466;SDS011;4270;48.148;11.648;2022-09-09T13:15:11;2.07;;;0.70;;
8466;SDS011;4270;48.148;11.648;2022-09-09T13:17:39;1.90;;;0.70;;
8466;SDS011;4270;48.148;11.648;2022-09-09T13:20:06;1.63;;;0.80;;
8466;SDS011;4270;48.148;11.648;2022-09-09T13:22:35;2.10;;;1.03;;
8466;SDS011;4270;48.148;11.648;2022-09-09T13:27:37;1.50;;;0.63;;
8466;SDS011;4270;48.148;11.648;2022-09-09T13:33:01;1.73;;;0.80;;
8466;SDS011;4270;48.148;11.648;2022-09-09T13:35:27;1.70;;;0.80;;
8466;SDS011;4270;48.148;11.648;2022-09-09T13:37:52;1.00;;;0.60;;
8466;SDS011;4270;48.148;11.648;2022-09-09T13:40:19;0.73;;;0.70;;
8466;SDS011;4270;48.148;11.648;2022-09-09T13:42:46;0.60;;;0.60;;
8466;SDS011;4270;48.148;11.648;2022-09-09T13:45:15;1.10;;;0.60;;
8466;SDS011;4270;48.148;11.648;2022-09-09T13:47:43;1.90;;;0.60;;
8466;SDS011;4270;48.148;11.648;2022-09-09T13:53:08;1.20;;;0.80;;
8466;SDS011;4270;48.148;11.648;2022-09-09T13:55:36;0.93;;;0.60;;
8466;SDS011;4270;48.148;11.648;2022-09-09T13:58:02;1.73;;;0.80;;
8466;SDS011;4270;48.148;11.648;2022-09-09T14:00:31;2.93;;;0.80;;
8466;SDS011;4270;48.148;11.648;2022-09-09T14:02:56;0.60;;;0.53;;
8466;SDS011;4270;48.148;11.648;2022-09-09T14:05:21;1.20;;;0.70;;
8466;SDS011;4270;48.148;11.648;2022-09-09T14:07:47;1.00;;;0.87;;
8466;SDS011;4270;48.148;11.648;2022-09-09T14:10:13;0.93;;;0.80;;
8466;SDS011;4270;48.148;11.648;2022-09-09T14:12:38;0.80;;;0.80;;
8466;SDS011;4270;48.148;11.648;2022-09-09T14:15:04;0.80;;;0.63;;
8466;SDS011;4270;48.148;11.648;2022-09-09T14:17:29;1.83;;;0.70;;
8466;SDS011;4270;48.148;11.648;2022-09-09T14:19:55;0.70;;;0.70;;
8466;SDS011;4270;48.148;11.648;2022-09-09T14:22:21;1.00;;;0.90;;
8466;SDS011;4270;48.148;11.648;2022-09-09T14:24:46;0.90;;;0.70;;
8466;SDS011;4270;48.148;11.648;2022-09-09T14:27:11;1.17;;;0.60;;
8466;SDS011;4270;48.148;11.648;2022-09-09T14:29:36;1.43;;;0.77;;
8466;SDS011;4270;48.148;11.648;2022-09-09T14:32:01;1.10;;;0.80;;
8466;SDS011;4270;48.148;11.648;2022-09-09T14:34:26;2.30;;;0.70;;
8466;SDS011;4270;48.148;11.648;2022-09-09T14:36:52;1.13;;;0.70;;
8466;SDS011;4270;48.148;11.648;2022-09-09T14:39:17;0.67;;;0.60;;
8466;SDS011;4270;48.148;11.648;2022-09-09T14:41:42;4.43;;;0.80;;
8466;SDS011;4270;48.148;11.648;2022-09-09T14:44:08;1.10;;;0.70;;
8466;SDS011;4270;48.148;11.648;2022-09-09T14:46:33;1.57;;;0.70;;
8466;SDS011;4270;48.148;11.648;2022-09-09T14:48:58;0.57;;;0.50;;
8466;SDS011;4270;48.148;11.648;2022-09-09T14:51:24;1.27;;;0.73;;
8466;SDS011;4270;48.148;11.648;2022-09-09T14:53:53;1.60;;;0.70;;
8466;SDS011;4270;48.148;11.648;2022-09-09T14:56:20;1.47;;;0.60;;
8466;SDS011;4270;48.148;11.648;2022-09-09T14:58:47;3.70;;;0.80;;
8466;SDS011;4270;48.148;11.648;2022-09-09T15:01:13;1.10;;;0.70;;
8466;SDS011;4270;48.148;11.648;2022-09-09T15:03:39;2.00;;;0.70;;
8466;SDS011;4270;48.148;11.648;2022-09-09T15:06:05;2.87;;;0.87;;
8466;SDS011;4270;48.148;11.648;2022-09-09T15:08:31;0.73;;;0.70;;
8466;SDS011;4270;48.148;11.648;2022-09-09T15:11:00;1.83;;;1.23;;
8466;SDS011;4270;48.148;11.648;2022-09-09T15:13:26;2.40;;;0.70;;
8466;SDS011;4270;48.148;11.648;2022-09-09T15:15:51;1.07;;;0.60;;
8466;SDS011;4270;48.148;11.648;2022-09-09T15:18:16;1.75;;;0.90;;
8466;SDS011;4270;48.148;11.648;2022-09-09T15:20:44;2.73;;;0.73;;
8466;SDS011;4270;48.148;11.648;2022-09-09T15:23:11;3.50;;;1.03;;
8466;SDS011;4270;48.148;11.648;2022-09-09T15:25:36;1.37;;;0.70;;
8466;SDS011;4270;48.148;11.648;2022-09-09T15:28:01;1.67;;;0.80;;
8466;SDS011;4270;48.148;11.648;2022-09-09T15:30:26;2.20;;;1.10;;
8466;SDS011;4270;48.148;11.648;2022-09-09T15:32:52;2.60;;;0.83;;
8466;SDS011;4270;48.148;11.648;2022-09-09T15:35:17;3.90;;;1.90;;
8466;SDS011;4270;48.148;11.648;2022-09-09T15:37:43;2.20;;;1.00;;
8466;SDS011;4270;48.148;11.648;2022-09-09T15:40:08;1.88;;;0.90;;
8466;SDS011;4270;48.148;11.648;2022-09-09T15:42:33;2.00;;;0.73;;
8466;SDS011;4270;48.148;11.648;2022-09-09T15:44:58;2.37;;;0.80;;
8466;SDS011;4270;48.148;11.648;2022-09-09T15:47:24;2.13;;;1.00;;
8466;SDS011;4270;48.148;11.648;2022-09-09T15:49:49;1.60;;;0.80;;
8466;SDS011;4270;48.148;11.648;2022-09-09T15:52:15;1.20;;;0.70;;
8466;SDS011;4270;48.148;11.648;2022-09-09T15:54:40;4.63;;;1.03;;
8466;SDS011;4270;48.148;11.648;2022-09-09T15:57:09;1.20;;;0.73;;
8466;SDS011;4270;48.148;11.648;2022-09-09T15:59:35;3.37;;;0.90;;
8466;SDS011;4270;48.148;11.648;2022-09-09T16:02:01;3.93;;;1.00;;
8466;SDS011;4270;48.148;11.648;2022-09-09T16:04:26;1.57;;;1.00;;
8466;SDS011;4270;48.148;11.648;2022-09-09T16:06:52;1.47;;;0.60;;
8466;SDS011;4270;48.148;11.648;2022-09-09T16:09:18;1.73;;;0.90;;
8466;SDS011;4270;48.148;11.648;2022-09-09T16:11:44;2.17;;;0.93;;
8466;SDS011;4270;48.148;11.648;2022-09-09T16:14:09;1.23;;;0.80;;
8466;SDS011;4270;48.148;11.648;2022-09-09T16:16:34;2.13;;;0.87;;
8466;SDS011;4270;48.148;11.648;2022-09-09T16:19:00;1.93;;;1.00;;
8466;SDS011;4270;48.148;11.648;2022-09-09T16:21:28;2.07;;;0.83;;
8466;SDS011;4270;48.148;11.648;2022-09-09T16:23:56;3.03;;;1.20;;
8466;SDS011;4270;48.148;11.648;2022-09-09T16:26:22;1.90;;;0.90;;
8466;SDS011;4270;48.148;11.648;2022-09-09T16:28:48;1.33;;;0.70;;
8466;SDS011;4270;48.148;11.648;2022-09-09T16:31:14;1.70;;;0.97;;
8466;SDS011;4270;48.148;11.648;2022-09-09T16:33:40;1.10;;;0.80;;
8466;SDS011;4270;48.148;11.648;2022-09-09T16:36:07;3.43;;;0.73;;
8466;SDS011;4270;48.148;11.648;2022-09-09T16:38:32;1.30;;;0.90;;
8466;SDS011;4270;48.148;11.648;2022-09-09T16:40:59;0.83;;;0.70;;
8466;SDS011;4270;48.148;11.648;2022-09-09T16:43:24;2.20;;;0.80;;
8466;SDS011;4270;48.148;11.648;2022-09-09T16:45:49;0.80;;;0.77;;
8466;SDS011;4270;48.148;11.648;2022-09-09T16:48:15;1.42;;;0.93;;
8466;SDS011;4270;48.148;11.648;2022-09-09T16:50:40;1.27;;;0.80;;
8466;SDS011;4270;48.148;11.648;2022-09-09T16:53:05;1.35;;;0.90;;
8466;SDS011;4270;48.148;11.648;2022-09-09T16:55:37;1.90;;;1.07;;
8466;SDS011;4270;48.148;11.648;2022-09-09T16:58:02;1.00;;;0.80;;
8466;SDS011;4270;48.148;11.648;2022-09-09T17:00:27;2.47;;;1.00;;
8466;SDS011;4270;48.148;11.648;2022-09-09T17:02:53;1.73;;;0.80;;
8466;SDS011;4270;48.148;11.648;2022-09-09T17:05:18;2.40;;;1.20;;
8466;SDS011;4270;48.148;11.648;2022-09-09T17:07:43;1.50;;;1.07;;
8466;SDS011;4270;48.148;11.648;2022-09-09T17:10:08;2.50;;;0.80;;
8466;SDS011;4270;48.148;11.648;2022-09-09T17:12:34;2.67;;;1.20;;
8466;SDS011;4270;48.148;11.648;2022-09-09T17:15:00;1.20;;;0.90;;
8466;SDS011;4270;48.148;11.648;2022-09-09T17:17:27;3.83;;;1.23;;
8466;SDS011;4270;48.148;11.648;2022-09-09T17:19:53;1.13;;;0.93;;
8466;SDS011;4270;48.148;11.648;2022-09-09T17:22:18;1.83;;;0.90;;